createdAt,value
2023-07-23T00:02:10.106Z,20.60
2023-07-23T00:04:38.169Z,20.60
2023-07-23T00:07:06.667Z,20.60
2023-07-23T00:09:34.726Z,20.60
2023-07-23T00:12:02.994Z,20.50
2023-07-23T00:14:31.086Z,20.50
2023-07-23T00:17:00.594Z,20.50
2023-07-23T00:19:28.668Z,20.50
2023-07-23T00:21:56.771Z,20.50
2023-07-23T00:24:24.849Z,20.60
2023-07-23T00:26:52.993Z,20.50
2023-07-23T00:29:21.069Z,20.50
2023-07-23T00:31:49.202Z,20.50
2023-07-23T00:34:20.470Z,20.50
2023-07-23T00:36:48.562Z,20.50
2023-07-23T00:39:16.656Z,20.50
2023-07-23T00:41:44.706Z,20.50
2023-07-23T00:44:12.754Z,20.40
2023-07-23T00:46:40.936Z,20.40
2023-07-23T00:49:10.743Z,20.40
2023-07-23T00:51:42.084Z,20.40
2023-07-23T00:54:10.344Z,20.50
2023-07-23T00:56:39.248Z,20.40
2023-07-23T00:59:09.010Z,20.50
2023-07-23T01:01:37.164Z,20.50
2023-07-23T01:04:06.088Z,20.50
2023-07-23T01:06:37.465Z,20.40
2023-07-23T01:09:07.852Z,20.40
2023-07-23T01:11:36.800Z,20.40
2023-07-23T01:14:05.696Z,20.40
2023-07-23T01:16:34.340Z,20.40
2023-07-23T01:19:03.312Z,20.40
2023-07-23T01:21:31.353Z,20.30
2023-07-23T01:24:00.855Z,20.30
2023-07-23T01:26:29.057Z,20.30
2023-07-23T01:28:57.110Z,20.30
2023-07-23T01:31:25.337Z,20.30
2023-07-23T01:33:54.089Z,20.30
2023-07-23T01:36:22.155Z,20.40
2023-07-23T01:38:50.267Z,20.30
2023-07-23T01:41:19.793Z,20.40
2023-07-23T01:43:48.144Z,20.30
2023-07-23T01:46:16.344Z,20.40
2023-07-23T01:48:44.419Z,20.40
2023-07-23T01:51:13.060Z,20.40
2023-07-23T01:53:41.100Z,20.40
2023-07-23T01:56:09.270Z,20.40
2023-07-23T01:58:38.790Z,20.50
2023-07-23T02:01:06.909Z,20.50
2023-07-23T02:03:35.043Z,20.40
2023-07-23T02:06:04.470Z,20.40
2023-07-23T02:08:32.479Z,20.30
2023-07-23T02:11:01.933Z,20.30
2023-07-23T02:13:30.131Z,20.30
2023-07-23T02:15:59.643Z,20.20
2023-07-23T02:18:27.706Z,20.20
2023-07-23T02:20:55.844Z,20.20
2023-07-23T02:23:23.945Z,20.20
2023-07-23T02:25:52.481Z,20.20
2023-07-23T02:28:20.587Z,20.20
2023-07-23T02:30:48.752Z,20.20
2023-07-23T02:33:18.209Z,20.30
2023-07-23T02:35:46.362Z,20.20
2023-07-23T02:38:14.419Z,20.20
2023-07-23T02:40:42.431Z,20.10
2023-07-23T02:43:13.398Z,20.10
2023-07-23T02:45:41.556Z,20.10
2023-07-23T02:48:09.831Z,20.10
2023-07-23T02:50:40.743Z,20.10
2023-07-23T02:53:09.103Z,20.10
2023-07-23T02:55:37.237Z,20.00
2023-07-23T02:58:05.654Z,20.00
2023-07-23T03:00:33.787Z,19.90
2023-07-23T03:03:01.931Z,19.90
2023-07-23T03:05:30.153Z,19.80
2023-07-23T03:07:59.664Z,19.80
2023-07-23T03:10:27.887Z,19.70
2023-07-23T03:12:55.944Z,19.70
2023-07-23T03:15:24.076Z,19.60
2023-07-23T03:17:52.819Z,19.60
2023-07-23T03:20:21.246Z,19.50
2023-07-23T03:22:49.435Z,19.50
2023-07-23T03:25:19.048Z,19.50
2023-07-23T03:27:47.183Z,19.50
2023-07-23T03:30:15.632Z,19.50
2023-07-23T03:32:43.723Z,19.40
2023-07-23T03:35:11.833Z,19.50
2023-07-23T03:37:39.954Z,19.50
2023-07-23T03:40:09.395Z,19.50
2023-07-23T03:42:38.851Z,19.50
2023-07-23T03:45:08.029Z,19.50
2023-07-23T03:47:36.090Z,19.50
2023-07-23T03:50:04.297Z,19.50
2023-07-23T03:52:33.576Z,19.60
2023-07-23T03:55:01.651Z,19.60
2023-07-23T03:57:29.747Z,19.60
2023-07-23T03:59:59.170Z,19.60
2023-07-23T04:02:27.295Z,19.70
2023-07-23T04:04:55.328Z,19.70
2023-07-23T04:07:23.388Z,19.70
2023-07-23T04:09:51.386Z,19.70
2023-07-23T04:12:19.497Z,19.70
2023-07-23T04:14:47.570Z,19.70
2023-07-23T04:17:18.317Z,19.70
2023-07-23T04:19:46.951Z,19.70
2023-07-23T04:22:15.030Z,19.70
2023-07-23T04:24:43.143Z,19.70
2023-07-23T04:27:11.271Z,19.70
2023-07-23T04:29:39.330Z,19.70
2023-07-23T04:32:07.837Z,19.70
2023-07-23T04:34:37.367Z,19.70
2023-07-23T04:37:07.982Z,19.80
2023-07-23T04:39:36.109Z,19.80
2023-07-23T04:42:04.435Z,19.90
2023-07-23T04:44:32.543Z,19.90
2023-07-23T04:47:00.608Z,19.90
2023-07-23T04:49:28.669Z,19.90
2023-07-23T04:51:58.177Z,20.00
2023-07-23T04:54:26.280Z,20.00
2023-07-23T04:56:54.334Z,20.00
2023-07-23T04:59:22.411Z,20.10
2023-07-23T05:01:50.535Z,20.10
2023-07-23T05:04:18.619Z,20.10
2023-07-23T05:06:46.684Z,20.10
2023-07-23T05:09:16.069Z,20.20
2023-07-23T05:11:44.147Z,20.20
2023-07-23T05:14:12.281Z,20.30
2023-07-23T05:16:41.731Z,20.30
2023-07-23T05:19:10.007Z,20.40
2023-07-23T05:21:38.095Z,20.40
2023-07-23T05:24:06.390Z,20.50
2023-07-23T05:26:35.943Z,20.60
2023-07-23T05:29:03.977Z,20.60
2023-07-23T05:31:32.560Z,20.60
2023-07-23T05:34:00.929Z,20.60
2023-07-23T05:36:28.994Z,20.70
2023-07-23T05:38:58.007Z,20.70
2023-07-23T05:41:26.420Z,20.70
2023-07-23T05:43:55.862Z,20.70
2023-07-23T05:46:24.033Z,20.70
2023-07-23T05:48:52.094Z,20.70
2023-07-23T05:51:20.200Z,20.80
2023-07-23T05:53:48.843Z,20.90
2023-07-23T05:56:16.933Z,20.90
2023-07-23T05:58:45.012Z,20.90
2023-07-23T06:01:14.498Z,21.00
2023-07-23T06:03:53.187Z,21.10
2023-07-23T06:06:22.289Z,21.10
2023-07-23T06:08:50.498Z,21.20
2023-07-23T06:11:18.769Z,21.20
2023-07-23T06:13:46.886Z,21.30
2023-07-23T06:16:16.502Z,21.40
2023-07-23T06:18:44.650Z,21.50
2023-07-23T06:21:12.701Z,21.60
2023-07-23T06:23:40.783Z,21.70
2023-07-23T06:26:11.625Z,21.90
2023-07-23T06:28:40.406Z,22.00
2023-07-23T06:31:08.566Z,22.20
2023-07-23T06:33:38.050Z,22.40
2023-07-23T06:36:06.803Z,22.50
2023-07-23T06:38:35.025Z,22.50
2023-07-23T06:41:03.448Z,22.60
2023-07-23T06:43:31.528Z,22.60
2023-07-23T06:45:59.668Z,22.60
2023-07-23T06:48:29.835Z,22.60
2023-07-23T06:50:59.545Z,22.60
2023-07-23T06:53:28.230Z,22.60
2023-07-23T06:56:00.904Z,22.50
2023-07-23T06:58:30.128Z,22.50
2023-07-23T07:00:59.118Z,22.50
2023-07-23T07:03:27.742Z,22.50
2023-07-23T07:05:56.162Z,22.60
2023-07-23T07:08:25.639Z,22.70
2023-07-23T07:11:00.081Z,22.80
2023-07-23T07:13:28.540Z,22.80
2023-07-23T07:15:56.856Z,22.90
2023-07-23T07:18:26.490Z,22.90
2023-07-23T07:20:56.013Z,23.00
2023-07-23T07:23:25.867Z,23.00
2023-07-23T07:25:55.242Z,23.10
2023-07-23T07:28:23.346Z,23.20
2023-07-23T07:30:51.450Z,23.20
2023-07-23T07:33:20.078Z,23.30
2023-07-23T07:35:48.203Z,23.40
2023-07-23T07:38:16.308Z,23.50
2023-07-23T07:40:45.972Z,23.60
2023-07-23T07:43:14.160Z,23.80
2023-07-23T07:45:42.259Z,23.90
2023-07-23T07:48:10.394Z,24.10
2023-07-23T07:50:38.544Z,24.30
2023-07-23T07:53:06.715Z,24.40
2023-07-23T07:55:41.719Z,24.60
2023-07-23T07:58:14.011Z,24.70
2023-07-23T08:00:43.150Z,24.80
2023-07-23T08:03:12.070Z,24.80
2023-07-23T08:05:40.777Z,24.90
2023-07-23T08:08:09.434Z,24.90
2023-07-23T08:10:37.925Z,24.90
2023-07-23T08:13:06.228Z,24.80
2023-07-23T08:15:36.672Z,24.70
2023-07-23T08:18:05.394Z,24.60
2023-07-23T08:20:35.983Z,24.50
2023-07-23T08:23:04.965Z,24.30
2023-07-23T08:25:33.604Z,24.30
2023-07-23T08:28:02.176Z,24.30
2023-07-23T08:30:31.685Z,24.30
2023-07-23T08:33:03.051Z,24.50
2023-07-23T08:35:32.029Z,24.60
2023-07-23T08:38:00.746Z,24.60
2023-07-23T08:40:30.564Z,24.70
2023-07-23T08:43:53.785Z,24.70
2023-07-23T08:46:25.978Z,24.80
2023-07-23T08:49:06.098Z,24.90
2023-07-23T08:51:36.919Z,25.00
2023-07-23T08:54:07.569Z,25.00
2023-07-23T08:56:36.680Z,25.00
2023-07-23T08:59:06.438Z,25.20
2023-07-23T09:01:36.284Z,25.30
2023-07-23T09:04:07.200Z,25.40
2023-07-23T09:06:35.576Z,25.40
2023-07-23T09:09:08.558Z,25.50
2023-07-23T09:11:37.202Z,25.60
2023-07-23T09:14:09.167Z,25.70
2023-07-23T09:16:39.539Z,25.80
2023-07-23T09:19:10.834Z,25.90
2023-07-23T09:21:40.134Z,26.10
2023-07-23T09:24:10.825Z,26.20
2023-07-23T09:26:39.360Z,26.30
2023-07-23T09:29:10.947Z,26.40
2023-07-23T09:31:40.097Z,26.50
2023-07-23T09:34:09.638Z,26.50
2023-07-23T09:36:38.269Z,26.50
2023-07-23T09:39:08.321Z,26.40
2023-07-23T09:41:38.093Z,26.40
2023-07-23T09:44:09.135Z,26.40
2023-07-23T09:46:38.651Z,26.40
2023-07-23T09:49:06.800Z,26.50
2023-07-23T09:51:38.775Z,26.40
2023-07-23T09:54:07.217Z,26.40
2023-07-23T09:56:35.637Z,26.40
2023-07-23T09:59:04.464Z,26.40
2023-07-23T10:01:33.137Z,26.50
2023-07-23T10:04:04.093Z,26.50
2023-07-23T10:06:33.070Z,26.60
2023-07-23T10:09:06.915Z,26.60
2023-07-23T10:11:35.633Z,26.70
2023-07-23T10:14:04.007Z,26.70
2023-07-23T10:16:39.123Z,26.70
2023-07-23T10:19:08.100Z,26.70
2023-07-23T10:21:37.589Z,26.80
2023-07-23T10:24:07.900Z,26.80
2023-07-23T10:26:42.595Z,26.90
2023-07-23T10:29:13.011Z,27.00
2023-07-23T10:31:41.930Z,27.10
2023-07-23T10:34:44.298Z,27.20
2023-07-23T10:37:13.878Z,27.40
2023-07-23T10:39:44.709Z,27.50
2023-07-23T10:42:36.292Z,27.50
2023-07-23T10:45:24.706Z,27.60
2023-07-23T10:47:54.726Z,27.70
2023-07-23T10:50:23.836Z,27.90
2023-07-23T10:52:53.170Z,27.90
2023-07-23T10:55:46.444Z,28.00
2023-07-23T10:58:15.836Z,28.20
2023-07-23T11:00:45.240Z,28.30
2023-07-23T11:03:15.518Z,28.40
2023-07-23T11:05:45.325Z,28.50
2023-07-23T11:08:17.568Z,28.50
2023-07-23T11:10:58.281Z,28.40
2023-07-23T11:13:30.490Z,28.40
2023-07-23T11:15:58.729Z,28.40
2023-07-23T11:18:27.045Z,28.50
2023-07-23T11:20:57.859Z,28.60
2023-07-23T11:23:27.512Z,28.70
2023-07-23T11:25:58.100Z,28.70
2023-07-23T11:28:26.219Z,28.70
2023-07-23T11:30:58.137Z,28.80
2023-07-23T11:33:30.474Z,28.90
2023-07-23T11:35:58.859Z,28.90
2023-07-23T11:38:29.511Z,28.90
2023-07-23T11:41:01.188Z,29.00
2023-07-23T11:43:29.822Z,29.00
2023-07-23T11:45:57.994Z,29.10
2023-07-23T11:48:26.190Z,29.20
2023-07-23T11:50:55.611Z,29.40
2023-07-23T11:53:34.603Z,29.50
2023-07-23T11:56:14.421Z,29.50
2023-07-23T11:58:43.499Z,29.60
2023-07-23T12:01:12.475Z,29.60
2023-07-23T12:03:42.637Z,29.60
2023-07-23T12:06:11.184Z,29.60
2023-07-23T12:08:40.324Z,29.70
2023-07-23T12:11:13.792Z,29.80
2023-07-23T12:13:46.268Z,29.90
2023-07-23T12:16:15.925Z,29.90
2023-07-23T12:18:49.902Z,29.90
2023-07-23T12:21:22.974Z,29.90
2023-07-23T12:23:51.128Z,30.00
2023-07-23T12:26:20.551Z,30.00
2023-07-23T12:28:48.816Z,30.10
2023-07-23T12:31:16.999Z,30.20
2023-07-23T12:33:45.078Z,30.20
2023-07-23T12:36:13.174Z,30.20
2023-07-23T12:38:41.188Z,30.20
2023-07-23T12:41:09.281Z,30.20
2023-07-23T12:43:39.771Z,30.30
2023-07-23T12:46:09.839Z,30.30
2023-07-23T12:48:38.014Z,30.30
2023-07-23T12:51:06.081Z,30.30
2023-07-23T12:53:34.376Z,30.30
2023-07-23T12:56:02.478Z,30.30
2023-07-23T12:58:30.544Z,30.40
2023-07-23T13:01:00.023Z,30.40
2023-07-23T13:03:28.148Z,30.40
2023-07-23T13:05:56.268Z,30.30
2023-07-23T13:08:24.348Z,30.20
2023-07-23T13:10:52.447Z,30.30
2023-07-23T13:13:20.513Z,30.30
2023-07-23T13:15:48.620Z,30.30
2023-07-23T13:18:19.217Z,30.40
2023-07-23T13:20:47.795Z,30.50
2023-07-23T13:23:15.936Z,30.50
2023-07-23T13:25:45.184Z,30.60
2023-07-23T13:28:14.024Z,30.50
2023-07-23T13:30:42.198Z,30.40
2023-07-23T13:33:12.119Z,30.30
2023-07-23T13:35:41.942Z,30.20
2023-07-23T13:38:10.903Z,30.00
2023-07-23T13:40:40.389Z,30.00
2023-07-23T13:43:08.459Z,30.00
2023-07-23T13:45:36.507Z,29.90
2023-07-23T13:48:04.892Z,29.90
2023-07-23T13:50:45.341Z,30.00
2023-07-23T13:53:20.403Z,30.00
2023-07-23T13:55:48.779Z,30.10
2023-07-23T13:58:16.919Z,30.20
2023-07-23T14:00:45.028Z,30.30
2023-07-23T14:03:13.305Z,30.20
2023-07-23T14:05:41.516Z,30.10
2023-07-23T14:08:09.647Z,30.00
2023-07-23T14:10:39.125Z,29.70
2023-07-23T14:13:07.420Z,29.50
2023-07-23T14:15:35.486Z,29.30
2023-07-23T14:18:04.045Z,29.10
2023-07-23T14:20:32.211Z,28.90
2023-07-23T14:23:00.292Z,28.70
2023-07-23T14:25:28.427Z,28.50
2023-07-23T14:27:57.894Z,28.40
2023-07-23T14:30:26.029Z,28.20
2023-07-23T14:32:54.314Z,28.10
2023-07-23T14:35:22.563Z,28.00
2023-07-23T14:37:50.591Z,28.00
2023-07-23T14:40:18.606Z,28.00
2023-07-23T14:42:46.682Z,28.00
2023-07-23T14:45:17.195Z,28.00
2023-07-23T14:47:45.426Z,28.10
2023-07-23T14:50:13.546Z,28.10
2023-07-23T14:52:41.629Z,28.30
2023-07-23T14:55:10.283Z,28.50
2023-07-23T14:57:38.376Z,28.70
2023-07-23T15:00:08.641Z,28.90
2023-07-23T15:02:38.326Z,29.10
2023-07-23T15:05:07.963Z,29.10
2023-07-23T15:07:36.106Z,29.10
2023-07-23T15:10:04.803Z,29.00
2023-07-23T15:12:33.453Z,29.00
2023-07-23T15:15:02.089Z,29.00
2023-07-23T15:17:30.822Z,29.00
2023-07-23T15:20:00.783Z,29.00
2023-07-23T15:22:29.801Z,29.00
2023-07-23T15:24:58.539Z,29.00
2023-07-23T15:27:29.304Z,29.00
2023-07-23T15:29:57.232Z,28.90
2023-07-23T15:32:25.356Z,28.90
2023-07-23T15:34:53.438Z,28.90
2023-07-23T15:37:22.943Z,28.90
2023-07-23T15:39:51.716Z,28.90
2023-07-23T15:42:19.802Z,28.80
2023-07-23T15:44:47.837Z,28.80
2023-07-23T15:47:15.981Z,28.70
2023-07-23T15:49:44.060Z,28.70
2023-07-23T15:52:12.119Z,28.70
2023-07-23T15:54:41.761Z,28.70
2023-07-23T15:57:09.873Z,28.60
2023-07-23T15:59:38.013Z,28.60
2023-07-23T16:02:06.733Z,28.50
2023-07-23T16:04:38.105Z,28.40
2023-07-23T16:07:06.816Z,28.30
2023-07-23T16:09:34.908Z,28.30
2023-07-23T16:12:04.834Z,28.20
2023-07-23T16:14:32.917Z,28.20
2023-07-23T16:17:01.025Z,28.20
2023-07-23T16:19:29.123Z,28.10
2023-07-23T16:21:57.262Z,28.20
2023-07-23T16:24:25.437Z,28.20
2023-07-23T16:26:55.052Z,28.20
2023-07-23T16:29:24.699Z,28.30
2023-07-23T16:31:53.403Z,28.40
2023-07-23T16:34:21.940Z,28.40
2023-07-23T16:36:51.889Z,28.40
2023-07-23T16:39:20.682Z,28.40
2023-07-23T16:41:48.902Z,28.30
2023-07-23T16:44:17.235Z,28.20
2023-07-23T16:46:46.660Z,28.10
2023-07-23T16:49:14.740Z,28.00
2023-07-23T16:51:44.458Z,27.80
2023-07-23T16:54:12.539Z,27.70
2023-07-23T16:56:40.720Z,27.70
2023-07-23T16:59:08.848Z,27.60
2023-07-23T17:01:36.928Z,27.40
2023-07-23T17:04:06.452Z,27.30
2023-07-23T17:06:34.504Z,27.30
2023-07-23T17:09:02.659Z,27.20
2023-07-23T17:11:31.045Z,27.10
2023-07-23T17:13:59.350Z,27.10
2023-07-23T17:16:27.778Z,27.10
2023-07-23T17:18:56.102Z,27.20
2023-07-23T17:21:25.594Z,27.20
2023-07-23T17:23:53.634Z,27.30
2023-07-23T17:26:21.693Z,27.20
2023-07-23T17:28:50.367Z,27.10
2023-07-23T17:31:18.628Z,27.10
2023-07-23T17:33:46.732Z,27.00
2023-07-23T17:36:14.816Z,27.00
2023-07-23T17:38:44.271Z,27.00
2023-07-23T17:41:14.030Z,26.90
2023-07-23T17:43:42.152Z,26.90
2023-07-23T17:46:10.632Z,26.90
2023-07-23T17:48:38.870Z,26.80
2023-07-23T17:51:08.900Z,26.70
2023-07-23T17:53:38.556Z,26.60
2023-07-23T17:56:08.284Z,26.60
2023-07-23T17:58:36.368Z,26.50
2023-07-23T18:01:15.784Z,26.50
2023-07-23T18:03:52.250Z,26.50
2023-07-23T18:06:22.634Z,26.40
2023-07-23T18:08:50.847Z,26.50
2023-07-23T18:11:20.223Z,26.50
2023-07-23T18:13:48.381Z,26.50
2023-07-23T18:16:16.442Z,26.50
2023-07-23T18:18:44.531Z,26.40
2023-07-23T18:21:12.725Z,26.30
2023-07-23T18:23:40.800Z,26.30
2023-07-23T18:26:08.959Z,26.20
2023-07-23T18:28:39.284Z,26.10
2023-07-23T18:31:15.184Z,26.00
2023-07-23T18:33:55.481Z,26.00
2023-07-23T18:36:23.523Z,25.90
2023-07-23T18:38:51.529Z,25.80
2023-07-23T18:41:19.618Z,25.80
2023-07-23T18:43:49.615Z,25.70
2023-07-23T18:46:17.744Z,25.60
2023-07-23T18:48:45.837Z,25.50
2023-07-23T18:51:13.899Z,25.40
2023-07-23T18:53:41.904Z,25.30
2023-07-23T18:56:09.970Z,25.20
2023-07-23T18:58:38.157Z,25.10
2023-07-23T19:01:07.657Z,25.00
2023-07-23T19:03:38.448Z,24.90
2023-07-23T19:06:09.600Z,24.90
2023-07-23T19:08:38.016Z,24.80
2023-07-23T19:11:06.159Z,24.80
2023-07-23T19:13:34.228Z,24.70
2023-07-23T19:16:02.563Z,24.70
2023-07-23T19:18:32.471Z,24.70
2023-07-23T19:21:00.624Z,24.60
2023-07-23T19:23:28.682Z,24.50
2023-07-23T19:25:56.744Z,24.40
2023-07-23T19:28:24.795Z,24.40
2023-07-23T19:30:53.565Z,24.30
2023-07-23T19:33:23.479Z,24.30
2023-07-23T19:35:53.640Z,24.30
2023-07-23T19:38:21.788Z,24.20
2023-07-23T19:40:50.497Z,24.20
2023-07-23T19:43:18.670Z,24.10
2023-07-23T19:45:46.889Z,24.10
2023-07-23T19:48:14.971Z,24.10
2023-07-23T19:50:42.970Z,24.10
2023-07-23T19:53:13.534Z,24.00
2023-07-23T19:55:41.656Z,24.00
2023-07-23T19:58:09.867Z,24.00
2023-07-23T20:00:37.921Z,24.00
2023-07-23T20:03:06.147Z,24.00
2023-07-23T20:05:34.414Z,24.00
2023-07-23T20:08:02.412Z,24.00
2023-07-23T20:10:32.023Z,23.90
2023-07-23T20:13:00.257Z,23.90
2023-07-23T20:15:28.357Z,23.90
2023-07-23T20:17:56.523Z,23.90
2023-07-23T20:20:24.633Z,23.90
2023-07-23T20:22:53.442Z,23.90
2023-07-23T20:25:23.078Z,23.80
2023-07-23T20:27:52.690Z,23.80
2023-07-23T20:30:21.961Z,23.80
2023-07-23T20:32:50.508Z,23.80
2023-07-23T20:35:19.151Z,23.80
2023-07-23T20:37:47.660Z,23.70
2023-07-23T20:40:16.865Z,23.70
2023-07-23T20:42:45.511Z,23.60
2023-07-23T20:45:16.432Z,23.60
2023-07-23T20:47:45.381Z,23.60
2023-07-23T20:50:13.601Z,23.50
2023-07-23T20:52:43.124Z,23.40
2023-07-23T20:55:11.230Z,23.40
2023-07-23T20:57:39.309Z,23.40
2023-07-23T21:00:08.850Z,23.30
2023-07-23T21:02:38.350Z,23.30
2023-07-23T21:05:06.937Z,23.30
2023-07-23T21:07:35.006Z,23.20
2023-07-23T21:10:03.796Z,23.10
2023-07-23T21:12:31.819Z,23.10
2023-07-23T21:14:59.895Z,23.10
2023-07-23T21:17:28.019Z,23.10
2023-07-23T21:19:57.582Z,23.00
2023-07-23T21:22:25.663Z,23.00
2023-07-23T21:24:53.857Z,22.90
2023-07-23T21:27:21.974Z,22.90
2023-07-23T21:29:50.109Z,22.80
2023-07-23T21:32:18.224Z,22.70
2023-07-23T21:34:46.298Z,22.70
2023-07-23T21:37:15.801Z,22.60
2023-07-23T21:39:43.864Z,22.60
2023-07-23T21:42:11.912Z,22.60
2023-07-23T21:44:39.945Z,22.50
2023-07-23T21:47:08.410Z,22.50
2023-07-23T21:49:36.473Z,22.50
2023-07-23T21:52:04.608Z,22.50
2023-07-23T21:54:34.165Z,22.40
2023-07-23T21:57:02.221Z,22.40
2023-07-23T21:59:30.297Z,22.30
2023-07-23T22:01:58.317Z,22.30
2023-07-23T22:04:26.387Z,22.20
2023-07-23T22:06:54.447Z,22.20
2023-07-23T22:09:22.573Z,22.10
2023-07-23T22:11:52.063Z,22.10
2023-07-23T22:14:20.244Z,22.10
2023-07-23T22:16:48.335Z,22.00
2023-07-23T22:19:16.402Z,22.00
2023-07-23T22:21:44.467Z,22.00
2023-07-23T22:24:12.527Z,22.00
2023-07-23T22:26:40.611Z,22.00
2023-07-23T22:29:10.046Z,22.00
2023-07-23T22:31:38.109Z,22.00
2023-07-23T22:34:06.272Z,22.00
2023-07-23T22:36:34.941Z,21.90
2023-07-23T22:39:03.460Z,21.90
2023-07-23T22:41:32.316Z,21.90
2023-07-23T22:44:00.732Z,21.90
2023-07-23T22:46:30.342Z,21.90
2023-07-23T22:48:58.686Z,21.90
2023-07-23T22:51:26.752Z,22.00
2023-07-23T22:53:55.081Z,21.90
2023-07-23T22:56:23.113Z,22.00
2023-07-23T22:58:52.246Z,21.90
2023-07-23T23:01:21.068Z,21.90
2023-07-23T23:03:51.117Z,21.90
2023-07-23T23:06:19.230Z,21.90
2023-07-23T23:08:47.346Z,21.90
2023-07-23T23:11:15.428Z,21.90
2023-07-23T23:13:43.468Z,22.00
2023-07-23T23:16:11.625Z,22.00
2023-07-23T23:18:39.695Z,22.00
2023-07-23T23:21:09.158Z,22.10
2023-07-23T23:23:37.172Z,22.10
2023-07-23T23:26:05.324Z,22.10
2023-07-23T23:28:33.371Z,22.10
2023-07-23T23:31:01.475Z,22.20
2023-07-23T23:33:29.547Z,22.20
2023-07-23T23:35:58.646Z,22.20
2023-07-23T23:38:28.084Z,22.20
2023-07-23T23:40:57.183Z,22.10
2023-07-23T23:43:25.274Z,22.10
2023-07-23T23:45:53.477Z,22.10
2023-07-23T23:48:21.627Z,22.00
2023-07-23T23:50:49.695Z,22.00
2023-07-23T23:53:17.740Z,22.00
2023-07-23T23:55:47.154Z,22.00
2023-07-23T23:58:15.198Z,22.00
